Time;durP1;ratioP1;P1;durP2;ratioP2;P2;SDS_P1;SDS_P2;PMS_P1;PMS_P2;Temp;Humidity;BMP_temperature;BMP_pressure;BME280_temperature;BME280_humidity;BME280_pressure;Samples;Min_cycle;Max_cycle;Signal;HPM_P1;HPM_P2
2021/11/26 00:01:55;;;;;;;5.80;3.95;;;15.60;81.50;;;;;;5098616;28;20218;-61
2021/11/26 00:04:20;;;;;;;6.50;4.10;;;15.60;81.00;;;;;;5097747;28;20039;-61
2021/11/26 00:06:46;;;;;;;7.18;4.30;;;15.60;81.10;;;;;;5098365;28;20036;-61
2021/11/26 00:09:12;;;;;;;7.43;4.20;;;15.70;81.00;;;;;;5097722;28;20120;-61
2021/11/26 00:11:37;;;;;;;6.78;3.25;;;15.70;80.70;;;;;;5097570;28;20036;-61
2021/11/26 00:14:16;;;;;;;5.78;3.55;;;15.80;80.70;;;;;;5099324;28;21013;-61
2021/11/26 00:16:43;;;;;;;5.93;3.67;;;15.80;80.50;;;;;;5098063;28;20079;-62
2021/11/26 00:19:09;;;;;;;7.88;3.92;;;15.90;80.40;;;;;;5097613;28;20079;-61
2021/11/26 00:21:37;;;;;;;7.30;3.63;;;15.80;80.10;;;;;;5098128;28;20032;-61
2021/11/26 00:24:05;;;;;;;5.53;3.30;;;15.90;80.40;;;;;;5098785;28;20565;-62
2021/11/26 00:26:31;;;;;;;7.03;3.33;;;15.90;80.50;;;;;;5097781;28;20047;-61
2021/11/26 00:28:57;;;;;;;5.07;2.67;;;15.50;79.10;;;;;;5098686;28;20067;-61
2021/11/26 00:31:23;;;;;;;5.78;3.47;;;15.40;79.80;;;;;;5098262;28;20491;-61
2021/11/26 00:33:49;;;;;;;6.35;3.53;;;15.20;79.90;;;;;;5102785;28;20086;-62
2021/11/26 00:36:14;;;;;;;4.30;2.85;;;15.20;81.10;;;;;;5086095;28;22114;-61
2021/11/26 00:38:40;;;;;;;6.18;3.10;;;15.30;81.40;;;;;;5098686;28;20036;-62
2021/11/26 00:41:06;;;;;;;5.43;3.17;;;15.30;81.10;;;;;;5095211;28;20085;-63
2021/11/26 00:43:32;;;;;;;7.03;3.38;;;15.20;79.90;;;;;;5097176;28;20052;-61
2021/11/26 00:45:57;;;;;;;6.50;3.33;;;15.20;80.90;;;;;;5101392;28;20494;-61
2021/11/26 00:48:23;;;;;;;6.32;3.17;;;15.30;81.30;;;;;;5098462;28;20036;-61
2021/11/26 00:50:50;;;;;;;5.82;2.83;;;15.30;81.10;;;;;;5098198;28;20070;-61
2021/11/26 00:53:16;;;;;;;6.82;3.47;;;15.40;80.70;;;;;;5094628;28;20052;-61
2021/11/26 00:55:41;;;;;;;5.40;3.33;;;15.40;80.40;;;;;;5098130;28;20104;-61
2021/11/26 00:58:07;;;;;;;6.70;3.47;;;15.50;80.50;;;;;;5099078;28;20036;-61
2021/11/26 01:00:35;;;;;;;4.50;2.65;;;15.50;80.40;;;;;;5097224;28;20064;-61
2021/11/26 01:03:02;;;;;;;4.38;2.97;;;15.60;80.20;;;;;;5096775;28;20395;-61
2021/11/26 01:05:28;;;;;;;5.03;2.72;;;15.50;79.90;;;;;;5097615;28;20035;-61
2021/11/26 01:07:53;;;;;;;5.15;2.80;;;15.50;79.90;;;;;;5097690;28;20046;-61
2021/11/26 01:10:21;;;;;;;4.70;3.22;;;15.50;80.00;;;;;;5097269;28;20128;-62
2021/11/26 01:12:47;;;;;;;4.57;3.08;;;15.50;79.60;;;;;;5096136;28;20060;-61
2021/11/26 01:15:16;;;;;;;3.70;2.22;;;15.50;79.70;;;;;;5097327;28;20110;-61
2021/11/26 01:17:43;;;;;;;4.35;2.67;;;15.50;79.50;;;;;;5097705;28;20077;-61
2021/11/26 01:20:12;;;;;;;3.78;2.65;;;15.50;79.00;;;;;;5098976;28;20498;-62
2021/11/26 01:22:38;;;;;;;4.32;2.47;;;15.60;79.40;;;;;;5096536;28;20035;-61
2021/11/26 01:25:06;;;;;;;4.60;2.25;;;15.50;79.00;;;;;;5094799;28;20055;-61
2021/11/26 01:27:32;;;;;;;5.20;2.75;;;15.60;79.20;;;;;;5095846;28;20108;-61
2021/11/26 01:29:58;;;;;;;5.47;2.38;;;15.50;79.20;;;;;;5096902;28;20055;-61
2021/11/26 01:32:24;;;;;;;5.07;2.38;;;15.50;79.60;;;;;;5096857;28;20044;-62
2021/11/26 01:34:49;;;;;;;4.93;2.47;;;15.50;79.50;;;;;;5096153;28;20047;-61
2021/11/26 01:37:15;;;;;;;4.55;2.30;;;15.50;79.40;;;;;;5089396;28;20043;-61
2021/11/26 01:39:41;;;;;;;4.53;2.42;;;15.50;79.40;;;;;;5098409;28;20047;-61
2021/11/26 01:42:07;;;;;;;3.50;1.92;;;15.50;79.30;;;;;;5096316;28;20032;-61
2021/11/26 01:44:35;;;;;;;5.03;2.45;;;15.60;79.10;;;;;;5097018;28;20039;-61
2021/11/26 01:47:01;;;;;;;3.80;2.42;;;15.50;78.60;;;;;;5101819;28;20460;-61
2021/11/26 01:49:27;;;;;;;4.50;2.13;;;15.50;78.90;;;;;;5089058;28;20127;-61
2021/11/26 01:51:53;;;;;;;3.92;2.17;;;15.40;79.30;;;;;;5101374;28;20043;-62
2021/11/26 01:54:18;;;;;;;3.92;2.13;;;15.40;79.40;;;;;;5095463;28;20112;-61
2021/11/26 01:56:44;;;;;;;4.50;2.00;;;15.50;80.00;;;;;;5096231;28;20079;-61
2021/11/26 01:59:10;;;;;;;3.30;1.75;;;15.50;79.40;;;;;;5095743;28;20032;-61
2021/11/26 02:01:36;;;;;;;3.47;2.20;;;15.50;79.40;;;;;;5098094;28;20039;-61
2021/11/26 02:04:01;;;;;;;3.33;1.80;;;15.50;79.30;;;;;;5095642;28;20104;-61
2021/11/26 02:06:27;;;;;;;4.75;2.17;;;15.50;79.20;;;;;;5095611;28;20102;-61
2021/11/26 02:08:53;;;;;;;3.92;2.22;;;15.50;79.40;;;;;;5094496;28;20040;-61
2021/11/26 02:11:20;;;;;;;3.90;1.65;;;15.50;78.90;;;;;;5097125;28;20067;-61
2021/11/26 02:13:46;;;;;;;3.65;1.73;;;15.40;78.60;;;;;;5097054;28;20051;-61
2021/11/26 02:16:11;;;;;;;2.10;0.93;;;15.40;78.60;;;;;;5095312;28;20097;-61
2021/11/26 02:18:37;;;;;;;3.63;0.93;;;15.30;76.90;;;;;;5096866;28;20074;-61
2021/11/26 02:21:03;;;;;;;2.63;1.40;;;15.00;75.00;;;;;;5088524;28;20035;-61
2021/11/26 02:23:29;;;;;;;3.88;1.50;;;14.80;76.20;;;;;;5095801;28;20688;-61
2021/11/26 02:25:55;;;;;;;3.53;1.20;;;14.70;78.40;;;;;;5095528;28;20439;-61
2021/11/26 02:28:21;;;;;;;3.50;1.83;;;14.50;78.40;;;;;;5094709;28;20122;-61
2021/11/26 02:30:47;;;;;;;2.78;1.30;;;14.50;79.40;;;;;;5094388;28;20047;-61
2021/11/26 02:33:19;;;;;;;4.65;1.63;;;14.50;80.50;;;;;;5095194;28;20032;-61
2021/11/26 02:35:49;;;;;;;2.75;1.00;;;14.60;80.50;;;;;;5094773;28;20046;-61
2021/11/26 02:38:15;;;;;;;4.72;1.35;;;14.80;80.50;;;;;;5089109;28;20040;-61
2021/11/26 02:40:43;;;;;;;4.05;1.50;;;14.90;80.40;;;;;;5095348;28;20050;-61
2021/11/26 02:43:11;;;;;;;2.75;1.20;;;14.90;80.40;;;;;;5096316;28;20427;-61
2021/11/26 02:45:39;;;;;;;2.45;1.10;;;15.00;80.20;;;;;;5095492;28;20046;-61
2021/11/26 02:48:05;;;;;;;3.33;1.40;;;15.10;80.10;;;;;;5094583;28;20052;-62
2021/11/26 02:50:32;;;;;;;3.22;1.23;;;15.20;79.90;;;;;;5094215;28;20047;-61
2021/11/26 02:52:59;;;;;;;4.20;1.23;;;15.30;79.60;;;;;;5096245;28;20051;-61
2021/11/26 02:55:28;;;;;;;2.33;0.93;;;15.30;78.70;;;;;;5095619;28;20052;-61
2021/11/26 02:57:55;;;;;;;3.78;1.50;;;15.30;78.00;;;;;;5095516;28;20056;-61
2021/11/26 03:00:24;;;;;;;3.25;1.20;;;15.30;78.70;;;;;;5088533;28;20066;-61
2021/11/26 03:02:50;;;;;;;2.97;1.35;;;15.30;78.80;;;;;;5097578;28;20047;-60
2021/11/26 03:05:16;;;;;;;2.78;1.05;;;15.30;79.20;;;;;;5094171;28;20605;-61
2021/11/26 03:07:43;;;;;;;2.33;1.13;;;15.20;79.10;;;;;;5095216;28;20102;-61
2021/11/26 03:10:13;;;;;;;2.55;1.05;;;15.20;79.40;;;;;;5098255;28;20573;-62
2021/11/26 03:12:38;;;;;;;3.72;1.10;;;15.10;78.60;;;;;;5100510;28;20034;-61
2021/11/26 03:15:05;;;;;;;1.65;0.98;;;15.10;79.40;;;;;;5104186;28;20036;-61
2021/11/26 03:17:30;;;;;;;2.13;1.08;;;15.10;79.70;;;;;;5098557;28;20032;-61
2021/11/26 03:19:56;;;;;;;2.42;1.10;;;15.10;79.60;;;;;;5099033;28;20043;-61
2021/11/26 03:22:22;;;;;;;1.88;1.10;;;15.20;79.60;;;;;;5099342;28;20028;-61
2021/11/26 03:24:47;;;;;;;1.67;0.90;;;15.20;79.50;;;;;;5099513;28;20036;-61
2021/11/26 03:27:13;;;;;;;2.55;0.90;;;15.20;79.20;;;;;;5099495;28;20043;-61
2021/11/26 03:29:39;;;;;;;1.67;0.98;;;15.10;79.10;;;;;;5098011;28;20168;-61
2021/11/26 03:32:05;;;;;;;3.00;1.30;;;15.00;79.20;;;;;;5099285;28;20063;-61
2021/11/26 03:34:30;;;;;;;1.73;1.00;;;15.00;79.30;;;;;;5098802;28;20048;-61
2021/11/26 03:36:56;;;;;;;1.45;0.90;;;15.00;79.20;;;;;;5098660;28;20102;-61
2021/11/26 03:39:22;;;;;;;2.25;1.00;;;15.10;78.60;;;;;;5098483;28;20047;-61
2021/11/26 03:41:48;;;;;;;1.98;0.77;;;15.00;78.40;;;;;;5099217;28;20160;-61
2021/11/26 03:44:14;;;;;;;1.63;0.90;;;15.00;78.40;;;;;;5082537;28;22419;-61
2021/11/26 03:46:39;;;;;;;1.60;0.93;;;15.00;78.60;;;;;;5096844;28;20074;-61
2021/11/26 03:49:05;;;;;;;5.32;1.33;;;15.00;78.60;;;;;;5098404;28;20130;-61
2021/11/26 03:51:32;;;;;;;2.70;0.75;;;15.10;78.30;;;;;;5098739;28;20043;-61
2021/11/26 03:53:58;;;;;;;2.28;0.93;;;15.10;78.10;;;;;;5098992;28;20048;-61
2021/11/26 03:56:23;;;;;;;3.05;1.05;;;15.10;77.60;;;;;;5099220;28;20492;-61
2021/11/26 03:58:49;;;;;;;2.33;0.57;;;15.00;77.20;;;;;;5096818;28;20035;-61
2021/11/26 04:01:14;;;;;;;1.70;0.63;;;14.60;75.60;;;;;;5098928;28;20040;-61
2021/11/26 04:03:40;;;;;;;0.98;0.50;;;14.40;76.50;;;;;;5100504;28;20112;-61
2021/11/26 04:06:06;;;;;;;2.70;0.77;;;14.30;77.60;;;;;;5103961;28;20043;-61
2021/11/26 04:08:32;;;;;;;2.03;0.77;;;14.10;77.60;;;;;;5098521;28;20035;-61
2021/11/26 04:10:58;;;;;;;1.23;0.40;;;14.10;78.40;;;;;;5098763;28;20092;-61
2021/11/26 04:13:23;;;;;;;1.42;0.43;;;13.90;77.10;;;;;;5098580;28;20048;-61
2021/11/26 04:15:49;;;;;;;2.22;0.70;;;13.70;78.60;;;;;;5099134;28;20036;-61
2021/11/26 04:18:15;;;;;;;1.75;0.57;;;13.70;79.50;;;;;;5095818;28;20449;-61
2021/11/26 04:20:43;;;;;;;3.50;0.73;;;13.70;78.60;;;;;;5103074;28;20059;-61
2021/11/26 04:23:09;;;;;;;1.17;0.45;;;13.80;79.40;;;;;;5091293;28;20071;-61
2021/11/26 04:25:35;;;;;;;2.97;0.73;;;14.00;78.90;;;;;;5098210;28;20040;-61
2021/11/26 04:28:01;;;;;;;1.38;0.52;;;14.10;79.30;;;;;;5098097;28;20038;-61
2021/11/26 04:30:29;;;;;;;1.65;0.47;;;14.10;79.00;;;;;;5095687;28;20047;-61
2021/11/26 04:32:55;;;;;;;1.92;0.50;;;14.20;79.00;;;;;;5097848;28;20046;-61
2021/11/26 04:35:20;;;;;;;2.22;1.02;;;14.40;79.50;;;;;;5097630;28;20039;-61
2021/11/26 04:37:46;;;;;;;0.98;0.50;;;14.50;78.70;;;;;;5099043;28;20134;-61
2021/11/26 04:40:13;;;;;;;1.85;0.73;;;14.60;78.70;;;;;;5096064;28;20445;-61
2021/11/26 04:42:41;;;;;;;2.30;0.43;;;14.70;78.70;;;;;;5102737;28;20047;-61
2021/11/26 04:45:09;;;;;;;2.08;0.65;;;14.70;78.50;;;;;;5100327;28;20443;-61
2021/11/26 04:47:36;;;;;;;2.08;0.80;;;14.80;78.40;;;;;;5096933;28;20408;-61
2021/11/26 04:50:02;;;;;;;1.75;0.52;;;14.80;78.40;;;;;;5098660;28;20941;-61
2021/11/26 04:52:28;;;;;;;1.45;0.68;;;14.90;78.30;;;;;;5098261;28;20523;-61
2021/11/26 04:54:53;;;;;;;1.80;0.40;;;14.90;78.10;;;;;;5097850;28;20039;-61
2021/11/26 04:57:19;;;;;;;1.08;0.40;;;14.90;77.70;;;;;;5098066;28;20442;-61
2021/11/26 04:59:45;;;;;;;1.45;0.40;;;14.80;78.00;;;;;;5097255;28;20031;-61
2021/11/26 05:02:10;;;;;;;1.88;0.52;;;14.90;78.30;;;;;;5098396;28;20385;-61
2021/11/26 05:04:36;;;;;;;3.65;0.50;;;14.80;78.20;;;;;;5098315;28;20039;-69
2021/11/26 05:07:02;;;;;;;2.95;0.50;;;14.60;75.70;;;;;;5102667;28;20364;-68
2021/11/26 05:09:28;;;;;;;2.35;0.90;;;14.00;73.10;;;;;;5095689;28;20561;-68
2021/11/26 05:11:55;;;;;;;2.70;0.60;;;13.10;73.20;;;;;;5102729;28;20149;-68
2021/11/26 05:14:23;;;;;;;3.72;1.15;;;12.40;73.70;;;;;;5095225;28;20044;-68
2021/11/26 05:16:49;;;;;;;1.77;0.45;;;11.70;74.90;;;;;;5090010;28;20391;-68
2021/11/26 05:19:15;;;;;;;1.92;0.52;;;11.10;76.90;;;;;;5101304;28;20511;-68
2021/11/26 05:21:41;;;;;;;6.05;1.05;;;10.60;77.60;;;;;;5095485;28;20134;-68
2021/11/26 05:24:07;;;;;;;2.80;0.80;;;10.10;78.60;;;;;;5096349;28;20487;-68
2021/11/26 05:26:33;;;;;;;4.10;0.68;;;9.70;79.80;;;;;;5097295;28;20134;-68
2021/11/26 05:28:58;;;;;;;3.22;0.80;;;9.30;81.00;;;;;;5094795;28;20036;-68
2021/11/26 05:31:24;;;;;;;3.22;0.57;;;9.00;82.10;;;;;;5101447;28;20048;-68
2021/11/26 05:33:50;;;;;;;1.30;0.45;;;8.80;83.10;;;;;;5095142;28;20120;-68
2021/11/26 05:36:16;;;;;;;2.72;0.50;;;8.60;83.80;;;;;;5085677;28;20036;-68
2021/11/26 05:38:42;;;;;;;2.78;0.68;;;8.40;84.50;;;;;;5084838;28;20056;-68
2021/11/26 05:41:07;;;;;;;4.63;1.08;;;8.30;84.90;;;;;;5102493;28;20138;-68
2021/11/26 05:43:33;;;;;;;4.18;0.65;;;8.10;85.40;;;;;;5096259;28;20115;-69
2021/11/26 05:45:59;;;;;;;2.85;0.45;;;8.00;86.10;;;;;;5096209;28;20043;-69
2021/11/26 05:48:25;;;;;;;2.35;0.52;;;7.90;86.60;;;;;;5095975;28;20976;-69
2021/11/26 05:50:51;;;;;;;2.78;1.08;;;7.70;87.10;;;;;;5095381;28;20114;-69
2021/11/26 05:53:17;;;;;;;3.42;0.63;;;7.60;87.60;;;;;;5094986;28;20038;-69
2021/11/26 05:55:43;;;;;;;2.28;0.60;;;7.50;88.00;;;;;;5094602;28;20044;-69
2021/11/26 05:58:09;;;;;;;2.63;0.45;;;7.40;88.20;;;;;;5089679;28;20454;-69
2021/11/26 06:00:35;;;;;;;3.90;0.70;;;7.40;88.70;;;;;;5083873;28;20426;-69
2021/11/26 06:03:02;;;;;;;4.35;0.80;;;7.30;89.00;;;;;;5095458;28;20039;-68
2021/11/26 06:05:28;;;;;;;5.38;1.30;;;7.30;89.20;;;;;;5095584;28;20156;-68
2021/11/26 06:07:53;;;;;;;2.58;0.57;;;7.20;89.50;;;;;;5097060;28;20120;-69
2021/11/26 06:10:20;;;;;;;2.72;0.65;;;7.20;90.00;;;;;;5101642;28;20096;-69
2021/11/26 06:12:48;;;;;;;2.78;0.82;;;7.10;90.10;;;;;;5072095;28;20032;-69
2021/11/26 06:15:16;;;;;;;3.60;0.80;;;7.10;90.10;;;;;;5094792;28;20102;-69
2021/11/26 06:17:42;;;;;;;4.38;0.50;;;7.00;90.30;;;;;;5078331;28;20031;-68
2021/11/26 06:20:10;;;;;;;1.85;0.60;;;7.00;90.40;;;;;;5095310;28;20507;-68
2021/11/26 06:22:36;;;;;;;1.45;0.50;;;6.90;90.40;;;;;;5093955;28;20126;-68
2021/11/26 06:25:03;;;;;;;5.03;0.50;;;6.90;90.50;;;;;;5100560;28;20119;-69
2021/11/26 06:27:29;;;;;;;4.65;1.15;;;6.80;90.70;;;;;;5096381;28;20075;-69
2021/11/26 06:29:55;;;;;;;3.65;0.50;;;6.80;90.70;;;;;;5084372;28;20184;-69
2021/11/26 06:32:23;;;;;;;4.65;0.80;;;6.80;90.90;;;;;;5077268;28;20062;-69
2021/11/26 06:34:49;;;;;;;1.83;0.40;;;6.70;91.00;;;;;;5094705;28;20035;-70
2021/11/26 06:37:15;;;;;;;4.35;1.08;;;6.80;91.10;;;;;;5084044;28;20032;-70
2021/11/26 06:39:42;;;;;;;6.32;0.90;;;6.80;91.10;;;;;;5093756;28;20380;-70
2021/11/26 06:42:07;;;;;;;5.00;0.82;;;6.80;91.20;;;;;;5078082;28;20032;-70
2021/11/26 06:44:35;;;;;;;2.47;0.70;;;6.70;91.10;;;;;;5085702;28;20044;-70
2021/11/26 06:47:02;;;;;;;2.97;0.70;;;6.70;91.10;;;;;;5098212;28;23094;-70
2021/11/26 06:49:28;;;;;;;5.45;1.27;;;6.70;91.30;;;;;;5103514;28;20051;-70
2021/11/26 06:51:54;;;;;;;4.72;0.88;;;6.60;91.40;;;;;;5099011;28;20100;-68
2021/11/26 06:54:20;;;;;;;4.75;0.90;;;6.60;91.40;;;;;;5099428;28;20036;-69
2021/11/26 06:56:45;;;;;;;2.92;0.70;;;6.60;91.60;;;;;;5098967;28;20073;-69
2021/11/26 06:59:11;;;;;;;2.67;0.90;;;6.50;91.40;;;;;;5097631;28;20036;-66
2021/11/26 07:01:37;;;;;;;6.30;1.55;;;6.40;91.50;;;;;;5088362;28;20049;-70
2021/11/26 07:04:03;;;;;;;3.90;1.05;;;6.10;91.50;;;;;;5104523;28;20122;-70
2021/11/26 07:06:29;;;;;;;4.35;0.80;;;5.90;91.80;;;;;;5064793;28;20051;-70
2021/11/26 07:08:55;;;;;;;3.00;0.80;;;5.70;92.20;;;;;;5091905;28;20047;-70
2021/11/26 07:11:20;;;;;;;5.43;0.75;;;5.50;92.50;;;;;;5098783;28;20040;-67
2021/11/26 07:13:49;;;;;;;3.15;0.98;;;5.40;92.80;;;;;;5097492;28;20074;-70
2021/11/26 07:16:14;;;;;;;2.30;0.90;;;5.40;93.00;;;;;;5097125;28;20685;-70
2021/11/26 07:18:40;;;;;;;5.45;0.98;;;5.30;93.10;;;;;;5096327;28;20047;-71
2021/11/26 07:21:06;;;;;;;5.82;1.58;;;5.30;93.40;;;;;;5082871;28;20055;-68
2021/11/26 07:23:31;;;;;;;6.68;1.40;;;5.20;93.60;;;;;;5098310;28;20038;-68
2021/11/26 07:25:57;;;;;;;3.05;1.00;;;5.10;93.80;;;;;;5078957;28;20048;-68
2021/11/26 07:28:24;;;;;;;3.13;1.10;;;5.00;93.90;;;;;;5098629;28;20336;-68
2021/11/26 07:30:50;;;;;;;2.47;1.00;;;5.00;94.20;;;;;;5097480;28;20044;-68
2021/11/26 07:33:15;;;;;;;9.57;2.35;;;4.90;94.40;;;;;;5087066;28;20047;-65
2021/11/26 07:35:41;;;;;;;2.90;1.42;;;4.90;94.70;;;;;;5085348;28;20068;-70
2021/11/26 07:38:07;;;;;;;7.75;1.90;;;5.00;94.80;;;;;;5080638;28;20384;-66
2021/11/26 07:40:33;;;;;;;5.88;2.20;;;4.90;94.90;;;;;;5098871;28;20040;-68
2021/11/26 07:42:58;;;;;;;11.25;2.80;;;5.00;94.90;;;;;;5080513;28;20141;-66
2021/11/26 07:45:25;;;;;;;11.07;4.53;;;5.00;95.00;;;;;;5098030;28;20047;-68
2021/11/26 07:47:52;;;;;;;12.15;4.38;;;5.40;95.90;;;;;;5098007;28;20170;-68
2021/11/26 07:50:18;;;;;;;9.57;3.85;;;6.20;96.60;;;;;;5098182;28;20075;-68
2021/11/26 07:52:44;;;;;;;7.75;3.80;;;6.90;96.80;;;;;;5097511;28;20108;-68
2021/11/26 07:55:11;;;;;;;9.00;3.90;;;7.60;97.10;;;;;;5097140;28;20039;-68
2021/11/26 07:57:37;;;;;;;10.43;2.90;;;8.00;97.00;;;;;;5097624;28;20064;-68
2021/11/26 08:00:08;;;;;;;21.52;3.25;;;7.70;96.20;;;;;;5100228;28;20044;-68
2021/11/26 08:02:34;;;;;;;5.68;2.47;;;7.60;96.00;;;;;;5103775;28;20492;-69
2021/11/26 08:05:00;;;;;;;6.60;2.30;;;7.40;95.60;;;;;;5085922;28;20066;-68
2021/11/26 08:07:25;;;;;;;5.85;2.60;;;7.30;95.10;;;;;;5097099;28;20028;-68
2021/11/26 08:09:51;;;;;;;7.93;3.00;;;7.40;95.30;;;;;;5097466;28;20042;-68
2021/11/26 08:12:20;;;;;;;8.07;3.05;;;7.20;94.90;;;;;;5099323;28;20024;-68
2021/11/26 08:14:48;;;;;;;13.65;3.78;;;7.20;95.40;;;;;;5096832;28;20118;-68
2021/11/26 08:17:14;;;;;;;13.65;2.80;;;7.40;95.70;;;;;;5098919;28;20040;-68
2021/11/26 08:19:40;;;;;;;7.22;2.78;;;7.70;96.20;;;;;;5098830;28;20120;-69
2021/11/26 08:22:06;;;;;;;4.80;2.20;;;8.00;96.40;;;;;;5097249;28;20427;-68
2021/11/26 08:24:32;;;;;;;5.57;2.60;;;8.30;96.20;;;;;;5098257;28;20053;-68
2021/11/26 08:26:58;;;;;;;4.60;1.88;;;8.30;95.10;;;;;;5098656;28;20897;-67
2021/11/26 08:29:23;;;;;;;5.10;1.83;;;8.50;95.10;;;;;;5097997;28;20483;-69
2021/11/26 08:31:49;;;;;;;4.55;2.10;;;8.80;93.70;;;;;;5095880;28;20044;-68
2021/11/26 08:34:15;;;;;;;8.23;2.78;;;8.60;92.50;;;;;;5094367;28;20044;-68
2021/11/26 08:36:41;;;;;;;5.78;1.90;;;8.40;92.80;;;;;;5093456;28;20042;-69
2021/11/26 08:39:08;;;;;;;6.10;2.38;;;8.30;93.40;;;;;;5095670;28;20043;-68
2021/11/26 08:41:34;;;;;;;4.95;1.85;;;7.90;93.00;;;;;;5095902;28;20439;-69
2021/11/26 08:44:00;;;;;;;6.32;1.70;;;8.00;94.00;;;;;;5096297;28;20503;-69
2021/11/26 08:46:27;;;;;;;6.55;2.05;;;8.00;93.40;;;;;;5093151;28;20074;-70
2021/11/26 08:48:52;;;;;;;7.28;1.95;;;8.20;93.40;;;;;;5086918;28;20031;-73
2021/11/26 08:51:20;;;;;;;5.03;1.73;;;8.30;92.50;;;;;;5096095;28;20050;-71
2021/11/26 08:53:46;;;;;;;6.18;2.08;;;8.20;91.90;;;;;;5087606;28;20040;-68
2021/11/26 08:56:16;;;;;;;5.15;1.50;;;8.10;91.80;;;;;;5094506;28;20064;-70
2021/11/26 08:58:45;;;;;;;8.13;2.08;;;8.00;92.40;;;;;;5093228;28;20055;-66
2021/11/26 09:01:11;;;;;;;5.22;1.42;;;8.10;92.40;;;;;;5086889;28;20551;-67
2021/11/26 09:03:37;;;;;;;7.53;2.03;;;7.70;91.80;;;;;;5094764;28;20031;-66
2021/11/26 09:06:04;;;;;;;4.82;1.80;;;7.50;92.10;;;;;;5094689;28;20050;-66
2021/11/26 09:08:30;;;;;;;4.22;1.42;;;7.50;92.40;;;;;;5096081;28;20476;-64
2021/11/26 09:10:55;;;;;;;5.70;2.00;;;7.50;92.60;;;;;;5093654;27;20036;-64
2021/11/26 09:13:21;;;;;;;6.07;1.83;;;7.50;92.80;;;;;;5096029;28;20059;-64
2021/11/26 09:15:48;;;;;;;8.13;3.25;;;7.60;92.90;;;;;;5094046;28;20164;-66
2021/11/26 09:18:15;;;;;;;10.45;2.28;;;7.60;92.50;;;;;;5095430;28;20055;-66
2021/11/26 09:20:43;;;;;;;6.30;2.03;;;7.30;92.10;;;;;;5096184;28;20024;-67
2021/11/26 09:23:11;;;;;;;7.22;1.90;;;7.30;92.60;;;;;;5096007;28;20043;-64
2021/11/26 09:25:37;;;;;;;8.07;1.98;;;7.20;93.20;;;;;;5096653;28;20476;-65
2021/11/26 09:28:03;;;;;;;6.50;1.70;;;7.20;92.90;;;;;;5096380;28;20039;-67
2021/11/26 09:30:31;;;;;;;7.38;2.08;;;7.10;93.00;;;;;;5096442;28;20130;-64
2021/11/26 09:32:58;;;;;;;5.38;1.65;;;7.10;93.20;;;;;;5092740;28;20039;-65
2021/11/26 09:35:25;;;;;;;8.23;2.22;;;7.00;93.00;;;;;;5095743;28;20239;-65
2021/11/26 09:37:51;;;;;;;5.63;1.88;;;7.00;92.80;;;;;;5095784;28;20042;-67
2021/11/26 09:40:19;;;;;;;5.97;2.00;;;6.80;92.60;;;;;;5095577;28;20048;-66
2021/11/26 09:42:45;;;;;;;8.00;2.40;;;6.80;93.00;;;;;;5095006;28;20032;-65
2021/11/26 09:45:16;;;;;;;7.15;1.90;;;6.80;92.90;;;;;;5096007;28;20042;-65
2021/11/26 09:47:41;;;;;;;6.95;2.05;;;6.70;92.80;;;;;;5094743;28;20058;-66
2021/11/26 09:50:08;;;;;;;9.13;1.83;;;6.80;93.10;;;;;;5095039;28;20036;-65
2021/11/26 09:52:39;;;;;;;7.45;1.60;;;6.80;92.90;;;;;;5095125;28;20040;-65
2021/11/26 09:55:07;;;;;;;9.20;2.78;;;6.90;93.00;;;;;;5094592;28;20727;-65
2021/11/26 09:57:35;;;;;;;10.77;1.92;;;6.80;93.00;;;;;;5093384;28;20071;-70
2021/11/26 10:00:02;;;;;;;9.32;1.90;;;6.70;92.80;;;;;;5092819;28;20067;-66
2021/11/26 10:02:28;;;;;;;8.25;2.42;;;6.70;92.80;;;;;;5093265;28;20054;-66
2021/11/26 10:05:03;;;;;;;8.23;1.90;;;6.70;93.00;;;;;;5092717;28;20043;-67
2021/11/26 10:07:29;;;;;;;6.70;1.70;;;6.60;92.80;;;;;;5094033;28;20081;-64
2021/11/26 10:10:09;;;;;;;8.90;1.70;;;6.60;92.70;;;;;;5092806;28;20048;-67
2021/11/26 10:12:35;;;;;;;6.35;1.88;;;6.60;92.60;;;;;;5093417;28;20078;-65
2021/11/26 10:15:01;;;;;;;7.90;1.90;;;6.50;92.50;;;;;;5094341;28;20114;-63
2021/11/26 10:17:27;;;;;;;6.57;2.05;;;6.40;92.50;;;;;;5094657;28;20192;-66
2021/11/26 10:19:56;;;;;;;6.97;2.00;;;6.30;92.40;;;;;;5092484;28;20043;-67
2021/11/26 10:22:33;;;;;;;7.03;2.15;;;6.30;92.40;;;;;;5093974;28;20574;-69
2021/11/26 10:25:16;;;;;;;5.35;1.65;;;6.40;92.40;;;;;;5092713;28;20051;-66
2021/11/26 10:27:42;;;;;;;;;;;6.30;92.30;;;;;;5094916;28;20488;-66
2021/11/26 10:30:12;;;;;;;6.07;1.60;;;6.40;92.30;;;;;;5094577;28;20128;-67
2021/11/26 10:32:38;;;;;;;7.78;2.03;;;6.40;92.50;;;;;;5094428;28;20103;-68
2021/11/26 10:35:04;;;;;;;11.73;2.17;;;6.40;92.70;;;;;;5095934;28;20044;-67
2021/11/26 10:37:30;;;;;;;9.75;2.30;;;6.50;92.20;;;;;;5095400;28;20047;-67
2021/11/26 10:39:56;;;;;;;13.07;2.15;;;6.40;92.00;;;;;;5094248;28;20039;-68
2021/11/26 10:42:29;;;;;;;8.68;1.83;;;6.30;92.00;;;;;;5093822;28;20044;-64
2021/11/26 10:45:05;;;;;;;7.78;2.05;;;6.30;92.10;;;;;;5092918;28;20067;-65
2021/11/26 10:48:04;;;;;;;8.48;1.88;;;6.30;92.20;;;;;;5093437;28;20407;-66
2021/11/26 11:01:14;;;;;;;9.90;3.78;;;6.50;92.00;;;;;;5095773;28;20189;-65
2021/11/26 11:03:41;;;;;;;7.93;2.60;;;6.60;92.10;;;;;;5095394;28;20032;-65
2021/11/26 11:06:18;;;;;;;11.70;1.95;;;6.60;92.10;;;;;;5096299;28;20086;-65
2021/11/26 11:08:44;;;;;;;10.80;2.30;;;6.70;92.30;;;;;;5094007;28;20040;-65
2021/11/26 11:11:10;;;;;;;10.50;2.05;;;6.70;92.60;;;;;;5096069;28;20043;-65
2021/11/26 11:13:36;;;;;;;8.57;2.53;;;6.80;92.20;;;;;;5096297;28;20491;-66
2021/11/26 11:16:07;;;;;;;12.65;2.15;;;6.90;92.20;;;;;;5095468;28;20495;-66
2021/11/26 11:18:33;;;;;;;6.80;2.05;;;6.90;92.10;;;;;;5095003;28;20150;-66
2021/11/26 11:20:59;;;;;;;7.32;2.13;;;7.00;91.90;;;;;;5095593;28;20024;-66
2021/11/26 11:23:25;;;;;;;14.30;2.50;;;6.90;91.80;;;;;;5095860;28;20480;-66
2021/11/26 11:25:51;;;;;;;8.65;2.30;;;7.10;92.40;;;;;;5096011;28;20171;-66
2021/11/26 11:28:16;;;;;;;7.60;1.80;;;7.30;92.40;;;;;;5094100;28;20035;-65
2021/11/26 11:30:43;;;;;;;6.97;2.33;;;7.30;91.70;;;;;;5102713;28;20068;-67
2021/11/26 11:33:09;;;;;;;8.45;2.47;;;7.30;91.50;;;;;;5098727;28;20199;-68
2021/11/26 11:35:38;;;;;;;7.00;2.53;;;7.10;91.40;;;;;;5097608;28;20040;-67
2021/11/26 11:38:06;;;;;;;14.10;3.10;;;7.10;91.70;;;;;;5098902;28;20073;-68
2021/11/26 11:40:37;;;;;;;10.45;2.60;;;6.80;91.60;;;;;;5098576;28;20110;-69
2021/11/26 11:43:21;;;;;;;12.07;2.70;;;6.80;92.00;;;;;;5099291;28;20043;-68
2021/11/26 11:46:00;;;;;;;4.30;2.08;;;6.90;92.10;;;;;;5098091;28;20051;-68
2021/11/26 11:48:37;;;;;;;10.75;2.88;;;6.90;92.20;;;;;;5099070;28;20031;-68
2021/11/26 11:51:05;;;;;;;6.45;2.22;;;6.90;91.90;;;;;;5099984;28;20066;-68
2021/11/26 11:53:34;;;;;;;8.95;2.35;;;6.90;91.60;;;;;;5098196;28;20054;-68
2021/11/26 11:56:21;;;;;;;8.88;2.53;;;6.80;91.80;;;;;;5098786;28;22248;-68
2021/11/26 11:58:51;;;;;;;12.18;3.20;;;6.70;92.20;;;;;;5097111;28;20064;-67
2021/11/26 12:01:28;;;;;;;7.20;2.20;;;6.70;92.10;;;;;;5115215;27;20085;-67
2021/11/26 12:03:57;;;;;;;11.50;3.53;;;6.80;92.30;;;;;;5099000;28;20046;-67
2021/11/26 12:06:35;;;;;;;8.57;2.42;;;6.80;92.20;;;;;;5096646;28;20054;-68
2021/11/26 12:09:02;;;;;;;11.25;2.92;;;6.80;91.70;;;;;;5099961;28;20043;-67
2021/11/26 12:11:36;;;;;;;10.63;2.65;;;6.80;91.80;;;;;;5079043;28;20368;-67
2021/11/26 12:14:13;;;;;;;7.95;2.65;;;6.80;92.00;;;;;;5099122;28;20043;-67
2021/11/26 12:16:44;;;;;;;8.23;2.03;;;6.90;91.80;;;;;;5099305;28;20092;-68
2021/11/26 12:19:23;;;;;;;7.03;2.15;;;6.80;91.80;;;;;;5098666;27;20048;-68
2021/11/26 12:21:51;;;;;;;9.70;2.95;;;6.80;91.90;;;;;;5102824;28;20062;-68
2021/11/26 12:24:23;;;;;;;11.93;2.35;;;6.90;92.00;;;;;;5090829;28;20129;-67
2021/11/26 12:26:57;;;;;;;10.70;3.20;;;6.90;91.60;;;;;;5098457;28;20062;-68
2021/11/26 12:29:51;;;;;;;12.68;2.92;;;7.00;91.50;;;;;;5094135;28;20186;-67
2021/11/26 12:32:19;;;;;;;9.40;2.70;;;7.10;91.60;;;;;;5094609;27;20180;-67
2021/11/26 12:34:51;;;;;;;11.88;3.00;;;7.10;91.20;;;;;;5097421;28;20052;-67
2021/11/26 12:37:25;;;;;;;12.13;2.88;;;7.00;91.60;;;;;;5102437;28;20044;-68
2021/11/26 12:39:54;;;;;;;10.80;3.00;;;6.90;91.80;;;;;;5097732;28;20071;-68
2021/11/26 12:42:20;;;;;;;10.40;2.85;;;6.90;91.70;;;;;;5096246;28;20478;-68
2021/11/26 12:44:58;;;;;;;8.88;2.83;;;7.00;91.60;;;;;;5096562;28;20713;-68
2021/11/26 12:47:36;;;;;;;17.00;3.88;;;6.90;91.10;;;;;;5099097;28;20402;-67
2021/11/26 12:53:15;;;;;;;13.15;3.28;;;6.90;91.60;;;;;;5097173;28;20585;-68
2021/11/26 12:55:55;;;;;;;16.80;5.10;;;6.90;91.40;;;;;;5102057;28;20433;-68
2021/11/26 12:58:22;;;;;;;13.32;3.67;;;6.80;91.30;;;;;;5098638;28;20035;-69
2021/11/26 13:01:09;;;;;;;10.25;3.53;;;6.80;91.30;;;;;;5096200;28;20075;-59
2021/11/26 13:03:46;;;;;;;13.82;3.90;;;6.80;91.20;;;;;;5097313;28;20143;-59
2021/11/26 13:06:12;;;;;;;14.02;4.75;;;6.80;91.10;;;;;;5097933;28;20046;-60
2021/11/26 13:08:39;;;;;;;9.02;4.25;;;6.70;91.20;;;;;;5100075;28;20115;-60